Time;durP1;ratioP1;P1;durP2;ratioP2;P2;SDS_P1;SDS_P2;PMS_P1;PMS_P2;Temp;Humidity;BMP_temperature;BMP_pressure;BME280_temperature;BME280_humidity;BME280_pressure;Samples;Min_cycle;Max_cycle;Signal;HPM_P1;HPM_P2
2022/04/01 00:02:11;;;;;;;19.20;4.38;;;;;;;16.50;61.52;96896.16;4951484;29;20223;-65
2022/04/01 00:04:39;;;;;;;13.60;3.05;;;;;;;16.70;60.94;96865.09;4946119;28;20491;-65
2022/04/01 00:07:05;;;;;;;10.55;3.05;;;;;;;16.74;60.49;96861.16;4940664;29;20200;-65
2022/04/01 00:09:31;;;;;;;5.97;2.33;;;;;;;16.84;59.58;96864.31;4942324;29;20211;-65
2022/04/01 00:11:56;;;;;;;8.70;2.55;;;;;;;16.89;59.25;96852.31;4950463;29;20280;-65
2022/04/01 00:14:21;;;;;;;14.65;3.30;;;;;;;16.89;59.01;96813.13;4951339;29;20240;-65
2022/04/01 00:16:47;;;;;;;15.98;3.35;;;;;;;17.03;57.70;96809.66;4950964;29;20259;-65
2022/04/01 00:19:13;;;;;;;15.70;3.60;;;;;;;17.04;57.85;96826.97;4951171;29;20550;-65
2022/04/01 00:21:39;;;;;;;13.60;3.22;;;;;;;17.06;57.72;96798.03;4950586;29;20208;-65
2022/04/01 00:24:05;;;;;;;13.35;3.90;;;;;;;17.02;57.95;96779.31;4950519;29;20185;-65
2022/04/01 00:26:31;;;;;;;15.90;4.40;;;;;;;17.10;57.21;96768.75;4941975;29;20180;-65
2022/04/01 00:28:56;;;;;;;14.20;4.32;;;;;;;17.16;55.96;96783.69;4940573;29;20224;-65
2022/04/01 00:31:22;;;;;;;18.10;5.18;;;;;;;17.26;54.97;96770.31;4944585;29;20181;-65
2022/04/01 00:33:47;;;;;;;18.15;4.30;;;;;;;17.24;55.63;96765.25;4950536;29;20188;-65
2022/04/01 00:36:13;;;;;;;21.17;5.13;;;;;;;17.14;56.78;96766.56;4950851;29;20185;-65
2022/04/01 00:38:39;;;;;;;22.50;4.80;;;;;;;17.17;55.78;96774.03;4927114;29;20638;-65
2022/04/01 00:41:05;;;;;;;19.83;4.38;;;;;;;17.20;55.53;96794.59;4950336;29;20188;-65
2022/04/01 00:43:34;;;;;;;25.05;5.00;;;;;;;17.20;55.39;96792.75;4950550;29;20189;-65
2022/04/01 00:46:00;;;;;;;40.78;7.47;;;;;;;17.33;53.19;96797.31;4949642;29;20543;-65
2022/04/01 00:48:26;;;;;;;24.65;6.22;;;;;;;17.37;53.17;96786.31;4938571;29;20291;-65
2022/04/01 00:50:52;;;;;;;49.58;9.07;;;;;;;17.56;50.40;96764.00;4941114;29;20645;-65
2022/04/01 00:53:18;;;;;;;51.40;8.80;;;;;;;17.68;50.06;96711.00;4947097;29;20200;-66
2022/04/01 00:55:46;;;;;;;48.60;7.97;;;;;;;17.77;48.88;96682.88;4950381;29;20712;-66
2022/04/01 00:58:11;;;;;;;55.72;9.55;;;;;;;17.90;48.24;96719.59;4950244;29;20181;-66
2022/04/01 01:00:37;;;;;;;46.97;11.98;;;;;;;18.02;47.93;96697.91;4950200;29;20235;-65
2022/04/01 01:03:07;;;;;;;48.97;9.07;;;;;;;18.00;48.17;96707.78;4950383;28;20212;-66
2022/04/01 01:05:32;;;;;;;35.88;9.07;;;;;;;18.01;48.12;96701.53;4950055;29;20199;-66
2022/04/01 01:07:58;;;;;;;48.78;10.07;;;;;;;18.02;48.47;96712.81;4944191;29;20204;-66
2022/04/01 01:10:25;;;;;;;48.90;9.10;;;;;;;17.91;48.63;96737.72;4939451;29;20184;-65
2022/04/01 01:12:51;;;;;;;43.80;9.20;;;;;;;17.82;49.01;96779.88;4941636;29;20224;-64
2022/04/01 01:15:18;;;;;;;43.75;10.27;;;;;;;17.93;47.01;96761.06;4950068;29;20631;-64
2022/04/01 01:17:45;;;;;;;55.75;9.73;;;;;;;18.01;46.43;96771.41;4950061;29;20192;-64
2022/04/01 01:20:18;;;;;;;46.83;9.00;;;;;;;18.06;46.30;96759.34;4949868;29;20191;-64
2022/04/01 01:22:49;;;;;;;41.72;7.95;;;;;;;18.01;46.87;96740.00;4949825;29;20235;-65
2022/04/01 01:25:16;;;;;;;42.83;7.78;;;;;;;18.09;46.05;96729.38;4949824;29;20184;-64
2022/04/01 01:27:42;;;;;;;31.88;6.30;;;;;;;18.07;45.74;96747.09;4949619;29;20216;-65
2022/04/01 01:30:08;;;;;;;34.80;7.47;;;;;;;18.16;44.73;96714.50;4938547;29;20189;-66
2022/04/01 01:32:35;;;;;;;33.67;7.03;;;;;;;18.23;44.81;96721.41;4939827;29;20768;-66
2022/04/01 01:35:02;;;;;;;38.40;7.70;;;;;;;18.21;45.04;96735.69;4946104;29;20188;-66
2022/04/01 01:37:28;;;;;;;35.40;7.68;;;;;;;18.27;44.73;96743.59;4949438;29;20203;-65
2022/04/01 01:39:54;;;;;;;41.58;7.20;;;;;;;18.24;44.97;96743.97;4949732;29;20196;-65
2022/04/01 01:42:20;;;;;;;32.33;6.68;;;;;;;18.13;45.69;96739.25;4949753;29;20192;-66
2022/04/01 01:44:45;;;;;;;40.08;7.75;;;;;;;18.12;45.92;96713.28;4949426;29;20681;-64
2022/04/01 01:47:11;;;;;;;39.38;7.03;;;;;;;17.94;46.61;96720.81;4949250;29;20195;-64
2022/04/01 01:49:36;;;;;;;34.13;7.32;;;;;;;17.87;47.10;96746.94;4944853;28;20320;-66
2022/04/01 01:54:50;;;;;;;49.58;8.93;;;;;;;17.80;46.02;96709.47;4940635;29;20643;-64
2022/04/01 01:57:18;;;;;;;40.40;8.63;;;;;;;17.70;47.21;96695.09;4949435;29;20196;-66
2022/04/01 01:59:44;;;;;;;46.78;8.85;;;;;;;17.72;47.29;96659.88;4948939;29;20648;-66
2022/04/01 02:02:10;;;;;;;45.67;8.75;;;;;;;17.68;47.51;96694.47;4949146;29;20650;-64
2022/04/01 02:04:38;;;;;;;44.38;9.10;;;;;;;17.72;46.43;96678.19;4948849;28;20246;-66
2022/04/01 02:07:04;;;;;;;77.22;11.15;;;;;;;17.80;45.86;96669.41;4948896;29;20203;-66
2022/04/01 02:09:30;;;;;;;53.20;10.82;;;;;;;17.80;46.51;96685.09;4948798;29;20232;-64
2022/04/01 02:11:56;;;;;;;53.97;11.52;;;;;;;17.97;45.29;96689.03;4939269;29;20259;-66
2022/04/01 02:14:21;;;;;;;53.08;10.95;;;;;;;17.95;45.68;96704.13;4939164;29;20256;-66
2022/04/01 02:16:47;;;;;;;56.33;10.65;;;;;;;18.01;45.81;96734.75;4943671;29;20208;-65
2022/04/01 02:19:16;;;;;;;67.53;13.43;;;;;;;18.27;44.61;96632.81;4948895;29;20702;-66
2022/04/01 02:21:41;;;;;;;65.82;11.55;;;;;;;18.33;44.52;96642.53;4949066;29;20204;-65
2022/04/01 02:24:07;;;;;;;64.57;12.07;;;;;;;18.37;44.76;96628.03;4948551;29;20176;-65
2022/04/01 02:26:34;;;;;;;67.68;11.75;;;;;;;18.37;44.58;96630.66;4948747;29;20247;-66
2022/04/01 02:29:00;;;;;;;69.88;11.68;;;;;;;18.41;44.87;96665.94;4948601;29;20713;-65
2022/04/01 02:31:26;;;;;;;46.28;9.57;;;;;;;18.34;45.86;96679.00;4946205;29;20188;-66
2022/04/01 02:33:51;;;;;;;50.63;10.52;;;;;;;18.32;46.28;96672.34;4937723;29;20255;-66
2022/04/01 02:36:17;;;;;;;51.47;10.93;;;;;;;18.27;46.90;96685.97;4938124;29;20439;-64
2022/04/01 02:38:43;;;;;;;47.65;8.07;;;;;;;18.15;48.39;96699.81;4946883;29;20190;-66
2022/04/01 02:41:13;;;;;;;36.70;8.18;;;;;;;18.14;50.78;96719.94;4948656;29;20184;-66
2022/04/01 02:43:39;;;;;;;33.92;7.80;;;;;;;17.98;52.47;96690.66;4948365;29;20183;-66
2022/04/01 02:46:05;;;;;;;28.67;6.57;;;;;;;17.75;54.28;96714.47;4948627;29;20188;-65
2022/04/01 02:48:31;;;;;;;33.15;6.78;;;;;;;17.65;55.08;96707.91;4948525;29;20287;-65
2022/04/01 02:50:57;;;;;;;23.90;6.55;;;;;;;17.61;56.03;96696.25;4948558;29;20785;-66
2022/04/01 02:53:22;;;;;;;26.05;6.10;;;;;;;17.34;58.66;96703.03;4941155;29;20180;-65
2022/04/01 02:55:48;;;;;;;25.92;5.65;;;;;;;17.13;59.91;96731.78;4938439;29;20609;-66
2022/04/01 02:58:14;;;;;;;35.17;5.50;;;;;;;16.90;61.17;96744.19;4941053;29;20185;-66
2022/04/01 03:00:39;;;;;;;23.38;5.35;;;;;;;16.85;61.63;96737.91;4950072;28;20173;-64
2022/04/01 03:03:07;;;;;;;24.63;4.80;;;;;;;16.90;61.70;96748.63;4952055;28;20246;-66
2022/04/01 03:05:33;;;;;;;18.85;5.03;;;;;;;16.77;62.28;96751.88;4952139;29;20203;-66
2022/04/01 03:08:00;;;;;;;22.10;5.13;;;;;;;16.65;62.68;96742.09;4952138;29;20558;-66
2022/04/01 03:10:26;;;;;;;20.00;6.55;;;;;;;16.51;63.34;96769.03;4952458;29;20641;-66
2022/04/01 03:12:52;;;;;;;27.35;6.20;;;;;;;16.47;63.50;96771.19;4951977;29;20594;-65
2022/04/01 03:15:17;;;;;;;17.08;5.47;;;;;;;16.37;63.70;96782.84;4940932;29;20426;-65
2022/04/01 03:17:43;;;;;;;21.15;6.53;;;;;;;16.26;64.39;96758.03;4942260;29;20199;-66
2022/04/01 03:20:13;;;;;;;23.02;5.60;;;;;;;16.19;64.75;96766.75;4947960;29;20269;-65
2022/04/01 03:22:43;;;;;;;25.50;6.25;;;;;;;15.95;65.97;96780.03;4952179;29;20196;-65
2022/04/01 03:25:15;;;;;;;19.30;5.35;;;;;;;16.03;65.72;96779.97;4952142;29;20266;-65
2022/04/01 03:27:41;;;;;;;21.27;4.90;;;;;;;15.94;65.74;96773.22;4952001;29;20177;-65
2022/04/01 03:30:09;;;;;;;22.60;5.15;;;;;;;15.92;66.09;96783.03;4951668;29;20189;-65
2022/04/01 03:32:39;;;;;;;20.15;6.07;;;;;;;15.83;66.12;96781.47;4952025;29;20276;-65
2022/04/01 03:35:08;;;;;;;25.73;5.63;;;;;;;15.92;65.84;96777.81;4946493;29;20185;-65
2022/04/01 03:37:33;;;;;;;19.63;5.80;;;;;;;15.76;66.30;96764.91;4941007;29;20176;-65
2022/04/01 03:40:00;;;;;;;17.80;5.38;;;;;;;15.90;65.17;96772.75;4943007;29;20614;-65
2022/04/01 03:42:31;;;;;;;17.90;5.30;;;;;;;15.98;64.54;96761.44;4951459;29;20690;-65
2022/04/01 03:45:03;;;;;;;28.08;5.65;;;;;;;15.98;64.34;96764.03;4951690;29;20191;-65
2022/04/01 03:47:40;;;;;;;25.70;5.43;;;;;;;15.93;64.44;96758.56;4951525;29;20760;-66
2022/04/01 03:50:11;;;;;;;23.55;5.38;;;;;;;15.83;65.16;96769.25;4951277;29;20177;-65
2022/04/01 03:52:37;;;;;;;19.10;6.30;;;;;;;15.88;65.17;96759.09;4952019;29;20186;-65
2022/04/01 03:55:05;;;;;;;25.52;5.75;;;;;;;15.84;65.30;96760.41;4951267;29;20267;-65
2022/04/01 03:57:35;;;;;;;24.25;6.60;;;;;;;15.82;65.50;96748.53;4939903;29;20740;-65
2022/04/01 04:00:00;;;;;;;28.25;6.35;;;;;;;15.75;65.86;96732.00;4941293;29;20272;-66
2022/04/01 04:02:26;;;;;;;27.17;5.82;;;;;;;15.92;65.16;96744.69;4947704;29;20741;-65
2022/04/01 04:04:55;;;;;;;27.10;5.90;;;;;;;15.94;64.68;96741.91;4951009;28;20217;-65
2022/04/01 04:07:23;;;;;;;35.30;6.68;;;;;;;15.89;64.92;96741.63;4951262;29;20181;-65
2022/04/01 04:09:49;;;;;;;39.45;6.65;;;;;;;15.77;65.66;96740.44;4950993;29;20213;-65
2022/04/01 04:12:17;;;;;;;31.33;5.85;;;;;;;15.72;66.05;96732.34;4950512;28;20188;-65
2022/04/01 04:14:43;;;;;;;22.13;6.70;;;;;;;15.52;66.61;96726.81;4951051;29;20185;-65
2022/04/01 04:17:15;;;;;;;27.85;6.65;;;;;;;15.45;66.95;96744.13;4945861;29;20203;-65
2022/04/01 04:20:01;;;;;;;18.05;5.80;;;;;;;15.50;66.86;96744.44;4940412;29;20268;-65
2022/04/01 04:22:35;;;;;;;25.73;6.45;;;;;;;15.39;67.45;96733.63;4943897;29;20267;-66
2022/04/01 04:25:10;;;;;;;34.30;6.03;;;;;;;15.33;67.50;96742.94;4950749;29;20181;-65
2022/04/01 04:27:40;;;;;;;32.72;6.55;;;;;;;15.40;66.41;96735.25;4950860;29;20239;-65
2022/04/01 04:30:08;;;;;;;32.85;7.10;;;;;;;15.44;66.55;96733.88;4950921;29;20239;-65
2022/04/01 04:32:54;;;;;;;25.38;6.10;;;;;;;15.50;66.09;96746.22;4950844;29;20639;-66
2022/04/01 04:35:22;;;;;;;27.00;7.13;;;;;;;15.63;65.04;96743.84;4950683;29;20866;-66
2022/04/01 04:37:51;;;;;;;20.88;6.30;;;;;;;15.63;65.72;96744.63;4947724;29;20196;-64
2022/04/01 04:40:17;;;;;;;27.90;6.75;;;;;;;15.53;66.14;96743.28;4939743;29;20637;-66
2022/04/01 04:42:45;;;;;;;30.38;7.22;;;;;;;15.51;66.40;96742.66;4941037;29;20545;-66
2022/04/01 04:45:18;;;;;;;31.33;6.25;;;;;;;15.45;66.83;96743.34;4949324;29;20189;-66
2022/04/01 04:47:45;;;;;;;28.15;6.20;;;;;;;15.38;67.79;96755.44;4950267;29;20671;-65
2022/04/01 04:50:11;;;;;;;31.17;7.45;;;;;;;15.38;67.77;96752.81;4950475;29;20251;-66
2022/04/01 04:52:42;;;;;;;37.38;6.97;;;;;;;15.36;67.69;96752.19;4950074;29;20663;-65
2022/04/01 04:55:09;;;;;;;28.30;6.63;;;;;;;15.37;68.12;96759.03;4950528;29;20698;-65
2022/04/01 04:57:35;;;;;;;30.70;8.13;;;;;;;15.40;67.69;96763.91;4950386;29;20220;-65
2022/04/01 05:00:01;;;;;;;25.55;5.78;;;;;;;15.42;67.98;96760.16;4941552;29;20695;-65
2022/04/01 05:03:06;;;;;;;27.67;6.68;;;;;;;15.48;67.94;96767.25;4940209;29;20193;-65
2022/04/01 05:05:44;;;;;;;35.63;7.50;;;;;;;15.50;67.34;96770.50;4946544;29;20188;-65
2022/04/01 05:08:30;;;;;;;33.92;8.25;;;;;;;15.52;67.62;96757.28;4949925;29;20204;-65
2022/04/01 05:10:59;;;;;;;28.83;7.43;;;;;;;15.55;67.38;96741.28;4949614;29;20185;-65
2022/04/01 05:13:49;;;;;;;33.95;7.90;;;;;;;15.58;67.63;96736.53;4949998;29;20193;-65
2022/04/01 05:16:38;;;;;;;68.20;24.60;;;;;;;15.68;66.65;96744.13;4949868;29;20189;-65
2022/04/01 05:19:09;;;;;;;34.60;8.23;;;;;;;15.75;65.26;96738.00;4949933;29;20181;-65
2022/04/01 05:21:43;;;;;;;43.65;7.82;;;;;;;15.73;65.47;96744.38;4938607;29;20681;-65
2022/04/01 05:24:16;;;;;;;30.67;7.97;;;;;;;15.84;64.87;96733.53;4938756;28;20191;-65
2022/04/01 05:26:45;;;;;;;33.60;7.70;;;;;;;15.92;64.51;96734.25;4946372;29;20181;-67
2022/04/01 05:29:25;;;;;;;43.03;10.88;;;;;;;15.97;64.29;96733.75;4949543;29;20209;-66
2022/04/01 05:31:53;;;;;;;43.40;8.52;;;;;;;16.05;63.85;96731.03;4950004;29;20173;-66
2022/04/01 05:34:25;;;;;;;35.28;10.02;;;;;;;16.12;64.21;96724.09;4949507;29;20204;-66
2022/04/01 05:36:53;;;;;;;33.28;11.40;;;;;;;16.27;62.19;96730.13;4949224;29;20260;-65
2022/04/01 05:39:18;;;;;;;42.33;10.70;;;;;;;16.31;61.64;96726.16;4949767;29;20185;-66
2022/04/01 05:41:46;;;;;;;42.60;10.15;;;;;;;16.37;60.90;96739.31;4942546;29;20624;-65
2022/04/01 05:44:12;;;;;;;41.60;9.52;;;;;;;16.44;61.28;96731.59;4939029;29;20240;-66
2022/04/01 05:46:39;;;;;;;36.15;10.68;;;;;;;16.50;61.67;96728.25;4941792;29;20200;-65
2022/04/01 05:49:05;;;;;;;31.75;8.77;;;;;;;16.59;60.91;96737.59;4949304;29;20259;-65
2022/04/01 05:51:32;;;;;;;36.85;9.52;;;;;;;16.63;60.70;96733.63;4949517;29;20247;-65
2022/04/01 05:53:58;;;;;;;34.65;8.82;;;;;;;16.69;60.79;96718.06;4949325;29;20558;-65
2022/04/01 05:56:24;;;;;;;35.13;9.75;;;;;;;16.74;60.45;96720.91;4949019;29;20663;-65
2022/04/01 05:58:50;;;;;;;35.00;8.40;;;;;;;16.78;60.50;96721.34;4949245;29;20183;-65
2022/04/01 06:01:18;;;;;;;31.30;9.75;;;;;;;16.80;60.67;96714.94;4949113;29;20188;-65
2022/04/01 06:04:10;;;;;;;30.77;8.35;;;;;;;16.82;60.33;96702.53;4937676;28;20585;-66
2022/04/01 06:06:41;;;;;;;34.53;8.55;;;;;;;16.87;60.33;96696.75;4940181;29;20257;-65
2022/04/01 06:09:18;;;;;;;34.97;8.98;;;;;;;17.00;59.85;96689.84;4946790;29;20653;-65
2022/04/01 06:12:01;;;;;;;50.25;9.35;;;;;;;17.11;60.04;96685.91;4949174;29;20263;-65
2022/04/01 06:14:37;;;;;;;37.72;12.85;;;;;;;17.17;60.08;96708.69;4948750;29;20184;-65
2022/04/01 06:17:11;;;;;;;41.03;8.70;;;;;;;17.23;60.31;96700.09;4949235;29;20180;-65
2022/04/01 06:19:43;;;;;;;36.03;8.95;;;;;;;17.24;60.48;96688.63;4948956;29;20179;-65
2022/04/01 06:22:16;;;;;;;38.97;8.35;;;;;;;17.21;60.48;96686.41;4948977;29;20807;-67
2022/04/01 06:25:13;;;;;;;37.88;8.88;;;;;;;17.31;59.65;96692.16;4938223;29;20612;-65
2022/04/01 06:27:46;;;;;;;39.22;9.15;;;;;;;17.37;59.25;96692.19;4939517;29;20179;-65
2022/04/01 06:30:21;;;;;;;49.83;8.95;;;;;;;17.50;58.65;96696.75;4946510;29;20176;-66
2022/04/01 06:32:56;;;;;;;32.63;8.73;;;;;;;17.68;56.89;96679.59;4948724;29;20188;-65
2022/04/01 06:35:40;;;;;;;41.65;8.35;;;;;;;17.76;57.13;96697.75;4948370;29;20338;-66
2022/04/01 06:38:20;;;;;;;34.53;8.68;;;;;;;17.85;56.44;96693.19;4948823;29;20259;-64
2022/04/01 06:40:52;;;;;;;51.90;9.98;;;;;;;18.01;56.09;96664.09;4948636;29;20600;-66
2022/04/01 06:43:18;;;;;;;50.97;11.18;;;;;;;18.13;55.78;96665.16;4948620;29;20199;-64
2022/04/01 06:45:43;;;;;;;49.55;13.80;;;;;;;18.22;55.67;96670.03;4938221;29;20188;-65
2022/04/01 06:48:09;;;;;;;39.08;8.73;;;;;;;18.32;54.28;96672.34;4938859;29;20521;-65
2022/04/01 06:50:35;;;;;;;55.42;21.45;;;;;;;18.42;53.42;96667.56;4943961;29;20654;-65
2022/04/01 06:53:01;;;;;;;51.78;11.13;;;;;;;18.53;53.24;96653.91;4948632;29;20767;-65
2022/04/01 06:55:26;;;;;;;55.65;18.67;;;;;;;18.67;52.30;96660.78;4948347;29;20188;-65
2022/04/01 06:57:52;;;;;;;44.05;14.85;;;;;;;18.82;51.80;96656.19;4948634;29;20195;-65
2022/04/01 07:00:19;;;;;;;43.78;12.07;;;;;;;18.77;51.17;96635.00;4948529;29;20192;-66
2022/04/01 07:02:45;;;;;;;39.05;9.98;;;;;;;18.98;50.65;96656.63;4948492;28;20192;-66
2022/04/01 07:05:12;;;;;;;45.58;14.85;;;;;;;19.09;50.08;96678.81;4945999;29;20662;-64
2022/04/01 07:07:40;;;;;;;47.38;9.23;;;;;;;19.22;52.84;96660.47;4937084;29;20192;-66
2022/04/01 07:10:07;;;;;;;55.25;10.15;;;;;;;19.24;53.17;96676.84;4939460;29;20777;-66
2022/04/01 07:12:32;;;;;;;44.40;7.95;;;;;;;19.26;52.51;96687.94;4946217;29;20593;-66
2022/04/01 07:15:01;;;;;;;36.10;7.80;;;;;;;19.34;52.21;96672.00;4948415;29;20192;-66
2022/04/01 07:17:26;;;;;;;49.92;8.85;;;;;;;19.38;52.50;96679.28;4948232;29;20666;-66
2022/04/01 07:19:52;;;;;;;46.30;11.63;;;;;;;19.50;53.00;96679.47;4948479;29;20212;-64
2022/04/01 07:22:18;;;;;;;40.67;8.68;;;;;;;19.52;53.98;96698.44;4948571;29;20195;-66
2022/04/01 07:24:43;;;;;;;45.00;10.45;;;;;;;19.57;54.27;96688.13;4948234;29;20738;-64
2022/04/01 07:27:11;;;;;;;41.95;8.45;;;;;;;19.54;54.79;96678.88;4941577;29;20213;-66
2022/04/01 07:29:37;;;;;;;42.38;8.32;;;;;;;19.46;55.22;96684.31;4937583;29;20212;-66
2022/04/01 07:34:49;;;;;;;35.97;7.00;;;;;;;19.42;55.09;96698.03;4948578;29;20636;-65
2022/04/01 07:37:15;;;;;;;35.53;8.00;;;;;;;19.33;55.30;96684.31;4948263;29;20191;-66
2022/04/01 07:39:40;;;;;;;31.17;8.32;;;;;;;19.34;55.28;96696.41;4948297;29;20196;-64
2022/04/01 07:42:06;;;;;;;44.30;8.13;;;;;;;19.37;55.12;96701.28;4948414;29;20570;-66
2022/04/01 07:44:32;;;;;;;39.53;8.20;;;;;;;19.39;54.70;96693.19;4948443;29;20193;-65
2022/04/01 07:46:57;;;;;;;46.70;8.15;;;;;;;19.44;54.57;96675.03;4948260;28;20188;-66
2022/04/01 07:49:23;;;;;;;41.45;8.30;;;;;;;19.48;54.40;96684.13;4939712;29;20205;-65
2022/04/01 07:51:49;;;;;;;38.30;8.10;;;;;;;19.48;54.33;96697.22;4941925;29;20276;-66
2022/04/01 07:54:15;;;;;;;51.20;10.32;;;;;;;19.52;53.55;96677.47;4948075;29;20188;-66
2022/04/01 07:56:42;;;;;;;38.95;8.48;;;;;;;19.60;53.49;96669.38;4951686;29;20195;-67
2022/04/01 07:59:09;;;;;;;43.58;8.85;;;;;;;19.70;52.94;96675.03;4951605;29;20188;-67
2022/04/01 08:01:35;;;;;;;38.75;8.23;;;;;;;19.70;52.54;96677.66;4951396;29;20214;-66
2022/04/01 08:04:01;;;;;;;38.78;7.88;;;;;;;19.78;51.96;96683.50;4950785;28;20761;-66
2022/04/01 08:06:26;;;;;;;46.95;9.77;;;;;;;19.86;51.34;96695.56;4951170;29;20276;-65
2022/04/01 08:08:55;;;;;;;39.35;8.18;;;;;;;19.86;51.06;96690.34;4946364;29;20212;-65
2022/04/01 08:11:22;;;;;;;44.97;9.07;;;;;;;19.96;50.75;96688.09;4940352;29;20190;-66
2022/04/01 08:13:47;;;;;;;49.95;10.05;;;;;;;20.07;49.78;96708.50;4942408;29;20532;-67
2022/04/01 08:16:13;;;;;;;38.30;9.38;;;;;;;20.12;49.37;96711.34;4950431;29;20184;-66
2022/04/01 08:18:39;;;;;;;46.30;9.35;;;;;;;20.19;49.05;96706.88;4951245;29;20657;-66
2022/04/01 08:21:04;;;;;;;34.83;8.55;;;;;;;20.26;48.42;96702.41;4951159;29;20216;-65
2022/04/01 08:23:34;;;;;;;38.70;8.48;;;;;;;20.36;48.62;96698.34;4950988;29;20327;-66
2022/04/01 08:26:01;;;;;;;43.60;9.13;;;;;;;20.46;48.27;96703.94;4950749;29;20670;-66
2022/04/01 08:28:27;;;;;;;32.03;8.38;;;;;;;20.50;48.51;96689.41;4950773;29;20208;-65
2022/04/01 08:30:53;;;;;;;33.92;8.82;;;;;;;20.58;48.02;96702.28;4941891;29;20242;-65
2022/04/01 08:33:20;;;;;;;39.22;8.65;;;;;;;20.68;47.89;96699.25;4940623;29;20193;-65
2022/04/01 08:35:46;;;;;;;38.53;8.77;;;;;;;20.77;48.11;96695.34;4945109;29;20192;-66
2022/04/01 08:38:12;;;;;;;42.35;9.10;;;;;;;20.78;48.35;96699.56;4950762;29;20188;-66
2022/04/01 08:40:38;;;;;;;48.10;10.02;;;;;;;20.91;47.58;96691.66;4950664;29;20233;-66
2022/04/01 08:43:04;;;;;;;39.90;7.93;;;;;;;20.95;47.94;96692.84;4950414;29;20219;-66
2022/04/01 08:45:35;;;;;;;49.63;9.15;;;;;;;20.95;47.98;96685.78;4950455;29;20227;-66
2022/04/01 08:48:02;;;;;;;44.38;9.50;;;;;;;21.07;48.30;96670.13;4950710;29;20200;-66
2022/04/01 08:50:28;;;;;;;53.20;10.10;;;;;;;21.09;47.86;96681.25;4949044;29;20199;-66
2022/04/01 08:52:53;;;;;;;49.03;9.82;;;;;;;21.20;47.54;96673.47;4938965;29;20661;-66
2022/04/01 08:55:19;;;;;;;41.08;8.48;;;;;;;21.28;47.59;96681.09;4940822;29;20714;-66
2022/04/01 08:57:44;;;;;;;32.50;8.90;;;;;;;21.22;47.74;96678.53;4947683;28;20255;-66
2022/04/01 09:00:13;;;;;;;43.28;9.43;;;;;;;21.25;47.59;96672.81;4950273;29;20581;-66
2022/04/01 09:02:38;;;;;;;46.30;9.60;;;;;;;21.36;47.18;96659.81;4950155;28;20188;-66
2022/04/01 09:05:05;;;;;;;43.03;9.38;;;;;;;21.53;46.89;96652.97;4949897;29;20607;-65
2022/04/01 09:07:31;;;;;;;39.90;9.93;;;;;;;21.67;46.39;96656.31;4949998;29;20196;-66
2022/04/01 09:10:05;;;;;;;47.80;9.80;;;;;;;21.78;46.40;96637.19;4950229;29;20727;-65
2022/04/01 09:12:31;;;;;;;44.15;8.73;;;;;;;21.84;44.92;96645.03;4943521;29;20579;-65
2022/04/01 09:14:58;;;;;;;60.45;9.77;;;;;;;21.88;44.92;96605.88;4939206;29;20212;-66
2022/04/01 09:17:47;;;;;;;41.30;10.15;;;;;;;21.85;44.51;96604.50;4942213;29;20195;-65
2022/04/01 09:20:14;;;;;;;36.90;8.02;;;;;;;22.01;43.00;96611.00;4949923;29;20198;-66
2022/04/01 09:22:42;;;;;;;60.17;10.27;;;;;;;22.11;42.42;96604.22;4949885;29;20197;-65
2022/04/01 09:25:17;;;;;;;50.90;10.07;;;;;;;22.21;40.61;96619.50;4949801;29;20598;-65
2022/04/01 09:27:46;;;;;;;49.08;8.90;;;;;;;22.33;39.67;96584.25;4949747;29;20191;-65
2022/04/01 09:30:32;;;;;;;46.55;9.52;;;;;;;22.49;39.32;96635.63;4949809;29;20275;-65
2022/04/01 09:33:01;;;;;;;44.70;9.55;;;;;;;22.51;38.24;96586.09;4946154;29;20702;-66
2022/04/01 09:35:32;;;;;;;39.33;8.88;;;;;;;22.54;38.33;96597.00;4921935;29;20854;-65
2022/04/01 09:38:04;;;;;;;43.60;9.30;;;;;;;22.62;38.60;96594.03;4940779;29;20654;-65
2022/04/01 09:40:30;;;;;;;51.30;9.20;;;;;;;22.74;38.35;96617.84;4948758;29;20192;-65
2022/04/01 09:42:59;;;;;;;38.90;8.82;;;;;;;22.81;37.36;96592.97;4949653;29;20200;-65
2022/04/01 09:45:35;;;;;;;34.70;7.35;;;;;;;22.87;36.99;96583.34;4949648;29;20196;-65
2022/04/01 09:48:04;;;;;;;38.47;8.80;;;;;;;22.92;37.38;96572.94;4949318;29;20682;-66
2022/04/01 09:50:32;;;;;;;38.13;8.25;;;;;;;23.04;37.66;96579.03;4949362;29;20192;-66
2022/04/01 09:53:15;;;;;;;46.78;9.82;;;;;;;23.09;36.71;96589.72;4949373;29;20323;-66
2022/04/01 09:55:46;;;;;;;46.35;9.15;;;;;;;23.18;37.11;96559.34;4938368;29;20957;-66
2022/04/01 09:58:12;;;;;;;39.53;8.98;;;;;;;23.19;35.73;96572.31;4939659;29;20670;-65
2022/04/01 10:00:40;;;;;;;46.97;8.30;;;;;;;23.26;35.82;96580.13;4945391;29;20331;-67
2022/04/01 10:03:07;;;;;;;43.65;8.73;;;;;;;23.33;36.26;96591.38;4948941;28;20674;-66
2022/04/01 10:05:35;;;;;;;45.38;9.25;;;;;;;23.24;35.88;96592.75;4949032;29;20185;-66
2022/04/01 10:08:03;;;;;;;51.40;10.05;;;;;;;23.31;36.20;96567.84;4949005;29;20185;-67
2022/04/01 10:10:30;;;;;;;33.05;8.18;;;;;;;23.52;35.91;96571.75;4948345;28;20200;-67
2022/04/01 10:13:05;;;;;;;51.90;10.00;;;;;;;23.62;36.42;96571.97;4949091;29;20625;-66
2022/04/01 10:15:32;;;;;;;43.13;8.60;;;;;;;23.81;35.63;96569.78;4943334;29;20250;-65
2022/04/01 10:17:58;;;;;;;38.45;9.30;;;;;;;23.79;34.99;96539.38;4938446;29;20207;-66
2022/04/01 10:20:36;;;;;;;44.38;8.88;;;;;;;23.94;34.39;96563.47;4940484;29;20192;-66
2022/04/01 10:23:07;;;;;;;48.20;9.88;;;;;;;24.01;34.88;96558.06;4948852;29;20662;-66
2022/04/01 10:25:59;;;;;;;52.30;9.07;;;;;;;24.15;34.97;96571.56;4931397;29;20287;-65
2022/04/01 10:28:26;;;;;;;52.85;9.05;;;;;;;24.23;34.26;96576.50;4948585;29;20753;-66
2022/04/01 10:30:57;;;;;;;50.60;9.18;;;;;;;24.18;34.06;96557.91;4948553;29;20575;-66
2022/04/01 10:33:26;;;;;;;43.33;8.50;;;;;;;24.30;34.56;96555.22;4948943;29;20239;-65
2022/04/01 10:35:52;;;;;;;43.70;8.25;;;;;;;24.39;33.63;96557.22;4946584;29;20872;-65
2022/04/01 10:38:20;;;;;;;41.60;8.15;;;;;;;24.52;34.42;96548.22;4937547;29;20180;-65
2022/04/01 10:40:49;;;;;;;41.88;9.00;;;;;;;24.63;34.08;96547.41;4939315;29;20199;-67
2022/04/01 10:43:18;;;;;;;46.05;8.05;;;;;;;24.67;33.16;96549.31;4946612;29;20223;-67
2022/04/01 10:46:00;;;;;;;46.05;9.93;;;;;;;24.76;33.21;96545.25;4948772;29;20569;-67
2022/04/01 10:53:56;;;;;;;42.65;9.15;;;;;;;25.05;32.87;96546.81;4948922;29;20242;-66
2022/04/01 10:56:21;;;;;;;39.40;9.05;;;;;;;25.19;32.60;96534.84;4948557;29;20184;-66
2022/04/01 10:59:12;;;;;;;62.35;10.27;;;;;;;25.32;32.39;96547.78;4937610;29;20203;-66
2022/04/01 11:01:53;;;;;;;40.45;8.27;;;;;;;25.43;33.06;96544.25;4921364;29;20189;-66
2022/04/01 11:04:18;;;;;;;44.70;8.82;;;;;;;25.45;31.50;96552.75;4946180;28;20223;-66
2022/04/01 11:06:55;;;;;;;43.33;9.00;;;;;;;25.35;31.37;96531.41;4948478;29;20192;-67
2022/04/01 11:09:47;;;;;;;44.70;8.43;;;;;;;24.87;31.92;96541.75;4948401;29;20208;-66
2022/04/01 11:12:15;;;;;;;41.05;7.50;;;;;;;25.00;31.91;96554.66;4948549;29;20351;-66
2022/04/01 11:17:48;;;;;;;35.45;7.70;;;;;;;25.57;31.41;96521.69;4948089;29;20283;-66
2022/04/01 11:20:26;;;;;;;39.63;7.57;;;;;;;25.74;30.65;96524.28;4936771;29;20203;-66
2022/04/01 11:22:56;;;;;;;44.05;8.95;;;;;;;25.81;31.69;96527.53;4940804;28;20617;-67
2022/04/01 11:25:22;;;;;;;37.15;8.60;;;;;;;26.05;30.48;96520.97;4950418;29;20204;-66
2022/04/01 11:27:56;;;;;;;43.85;8.10;;;;;;;26.03;30.55;96521.25;4951996;29;20820;-66
2022/04/01 11:30:24;;;;;;;39.30;8.85;;;;;;;26.18;30.47;96494.88;4951948;29;20188;-66
2022/04/01 11:32:54;;;;;;;43.22;8.70;;;;;;;26.47;29.55;96517.47;4951864;29;20192;-66
2022/04/01 11:35:25;;;;;;;31.40;8.23;;;;;;;26.03;29.54;96515.94;4951769;29;20655;-66
2022/04/01 11:37:51;;;;;;;50.80;9.52;;;;;;;25.36;29.57;96540.97;4951788;29;20188;-66
2022/04/01 11:40:25;;;;;;;47.05;8.10;;;;;;;25.42;30.22;96539.22;4943299;29;20219;-66
2022/04/01 11:42:57;;;;;;;46.28;8.40;;;;;;;25.61;30.73;96498.94;4941245;29;20276;-67
2022/04/01 11:45:24;;;;;;;47.47;8.93;;;;;;;25.88;29.92;96510.41;4947020;29;20192;-66
2022/04/01 11:47:49;;;;;;;31.90;7.38;;;;;;;26.02;28.50;96522.28;4951496;29;20193;-65